createdAt,value
2022-09-26T00:00:57.366Z,9.80
2022-09-26T00:01:57.242Z,9.70
2022-09-26T00:02:57.162Z,9.76
2022-09-26T00:03:57.099Z,9.67
2022-09-26T00:04:57.079Z,9.76
2022-09-26T00:05:57.062Z,9.77
2022-09-26T00:06:57.045Z,9.64
2022-09-26T00:07:57.026Z,9.74
2022-09-26T00:08:57.012Z,9.69
2022-09-26T00:09:56.989Z,9.76
2022-09-26T00:10:56.972Z,9.73
2022-09-26T00:11:56.956Z,9.76
2022-09-26T00:12:56.938Z,9.73
2022-09-26T00:13:56.923Z,9.72
2022-09-26T00:14:56.904Z,9.70
2022-09-26T00:15:56.886Z,9.63
2022-09-26T00:16:56.969Z,9.67
2022-09-26T00:17:56.851Z,9.73
2022-09-26T00:18:56.833Z,9.70
2022-09-26T00:19:56.819Z,9.73
2022-09-26T00:20:56.800Z,9.74
2022-09-26T00:21:56.782Z,9.74
2022-09-26T00:22:56.764Z,9.70
2022-09-26T00:23:56.750Z,9.69
2022-09-26T00:24:56.737Z,9.69
2022-09-26T00:25:56.714Z,9.67
2022-09-26T00:26:56.693Z,9.67
2022-09-26T00:27:56.679Z,9.72
2022-09-26T00:28:56.662Z,9.73
2022-09-26T00:29:56.643Z,9.73
2022-09-26T00:30:56.767Z,9.70
2022-09-26T00:31:56.610Z,9.69
2022-09-26T00:32:56.610Z,9.70
2022-09-26T00:33:56.575Z,9.76
2022-09-26T00:34:56.555Z,9.73
2022-09-26T00:35:56.537Z,9.76
2022-09-26T00:36:56.521Z,9.63
2022-09-26T00:37:56.503Z,9.70
2022-09-26T00:38:56.492Z,9.76
2022-09-26T00:39:56.471Z,9.63
2022-09-26T00:40:56.488Z,9.69
2022-09-26T00:41:56.434Z,9.76
2022-09-26T00:42:56.416Z,9.72
2022-09-26T00:43:56.398Z,9.63
2022-09-26T00:44:56.380Z,9.63
2022-09-26T00:45:56.399Z,9.72
2022-09-26T00:46:56.345Z,9.69
2022-09-26T00:47:56.338Z,9.70
2022-09-26T00:48:56.311Z,9.70
2022-09-26T00:49:56.293Z,9.66
2022-09-26T00:50:56.275Z,9.70
2022-09-26T00:51:56.259Z,9.69
2022-09-26T00:52:56.242Z,9.76
2022-09-26T00:53:56.224Z,9.80
2022-09-26T00:54:56.206Z,9.80
2022-09-26T00:55:56.189Z,9.76
2022-09-26T00:56:56.172Z,9.66
2022-09-26T00:57:56.156Z,9.72
2022-09-26T00:58:56.135Z,9.67
2022-09-26T00:59:56.120Z,9.69
2022-09-26T01:00:56.222Z,9.70
2022-09-26T01:01:56.187Z,9.63
2022-09-26T01:02:56.064Z,9.74
2022-09-26T01:03:56.050Z,9.76
2022-09-26T01:04:56.036Z,9.69
2022-09-26T01:05:56.012Z,9.73
2022-09-26T01:06:55.994Z,9.70
2022-09-26T01:07:55.981Z,9.74
2022-09-26T01:08:55.962Z,9.66
2022-09-26T01:09:55.944Z,9.74
2022-09-26T01:10:55.925Z,9.73
2022-09-26T01:11:55.908Z,9.76
2022-09-26T01:12:55.891Z,9.73
2022-09-26T01:13:55.880Z,9.70
2022-09-26T01:14:55.859Z,9.74
2022-09-26T01:15:55.841Z,9.69
2022-09-26T01:16:55.875Z,9.72
2022-09-26T01:17:55.807Z,9.72
2022-09-26T01:18:55.788Z,9.82
2022-09-26T01:19:55.773Z,9.70
2022-09-26T01:20:55.753Z,9.74
2022-09-26T01:21:55.735Z,9.77
2022-09-26T01:22:55.723Z,9.72
2022-09-26T01:23:55.701Z,9.67
2022-09-26T01:24:55.682Z,9.70
2022-09-26T01:25:55.671Z,9.76
2022-09-26T01:26:55.645Z,9.63
2022-09-26T01:27:55.636Z,9.69
2022-09-26T01:28:55.614Z,9.73
2022-09-26T01:29:55.593Z,9.76
2022-09-26T01:30:55.622Z,9.76
2022-09-26T01:31:55.559Z,9.72
2022-09-26T01:32:55.542Z,9.76
2022-09-26T01:33:55.526Z,9.67
2022-09-26T01:34:55.509Z,9.73
2022-09-26T01:35:55.493Z,9.72
2022-09-26T01:36:55.475Z,9.69
2022-09-26T01:37:55.455Z,9.74
2022-09-26T01:38:55.437Z,9.76
2022-09-26T01:39:55.421Z,9.74
2022-09-26T01:40:55.495Z,9.73
2022-09-26T01:41:55.385Z,9.66
2022-09-26T01:42:55.372Z,9.58
2022-09-26T01:43:55.351Z,9.67
2022-09-26T01:44:55.344Z,9.74
2022-09-26T01:45:55.359Z,9.55
2022-09-26T01:46:55.299Z,9.66
2022-09-26T01:47:55.283Z,9.62
2022-09-26T01:48:55.263Z,9.67
2022-09-26T01:49:55.247Z,9.63
2022-09-26T01:50:55.231Z,9.64
2022-09-26T01:51:55.212Z,9.63
2022-09-26T01:52:55.194Z,9.59
2022-09-26T01:53:55.179Z,9.55
2022-09-26T01:54:55.156Z,9.52
2022-09-26T01:55:55.143Z,9.56
2022-09-26T01:56:55.125Z,9.48
2022-09-26T01:57:55.109Z,9.58
2022-09-26T01:58:55.089Z,9.52
2022-09-26T01:59:55.072Z,9.59
2022-09-26T02:00:55.115Z,9.52
2022-09-26T02:01:55.086Z,9.55
2022-09-26T02:02:55.021Z,9.51
2022-09-26T02:03:55.001Z,9.58
2022-09-26T02:04:54.987Z,9.47
2022-09-26T02:05:54.966Z,9.47
2022-09-26T02:06:54.949Z,9.51
2022-09-26T02:07:54.932Z,9.47
2022-09-26T02:08:54.916Z,9.49
2022-09-26T02:09:54.898Z,9.49
2022-09-26T02:10:54.878Z,9.47
2022-09-26T02:11:54.862Z,9.49
2022-09-26T02:12:54.842Z,9.51
2022-09-26T02:13:54.828Z,9.47
2022-09-26T02:14:54.814Z,9.39
2022-09-26T02:15:54.792Z,9.47
2022-09-26T02:16:54.857Z,9.42
2022-09-26T02:17:54.759Z,9.34
2022-09-26T02:18:54.737Z,9.39
2022-09-26T02:19:54.722Z,9.42
2022-09-26T02:20:54.704Z,9.47
2022-09-26T02:21:54.684Z,9.40
2022-09-26T02:22:54.672Z,9.42
2022-09-26T02:23:54.650Z,9.40
2022-09-26T02:24:54.635Z,9.31
2022-09-26T02:25:54.614Z,9.42
2022-09-26T02:26:54.599Z,9.31
2022-09-26T02:27:54.579Z,9.37
2022-09-26T02:28:54.561Z,9.31
2022-09-26T02:29:54.562Z,9.47
2022-09-26T02:30:54.528Z,9.45
2022-09-26T02:31:54.534Z,9.42
2022-09-26T02:32:54.498Z,9.42
2022-09-26T02:33:54.475Z,9.37
2022-09-26T02:34:54.456Z,9.31
2022-09-26T02:35:54.438Z,9.39
2022-09-26T02:36:54.422Z,9.39
2022-09-26T02:37:54.404Z,9.36
2022-09-26T02:38:54.387Z,9.34
2022-09-26T02:39:54.366Z,9.34
2022-09-26T02:40:54.400Z,9.34
2022-09-26T02:41:54.331Z,9.29
2022-09-26T02:42:54.319Z,9.34
2022-09-26T02:43:54.301Z,9.34
2022-09-26T02:44:54.281Z,9.37
2022-09-26T02:45:54.324Z,9.30
2022-09-26T02:46:54.245Z,9.39
2022-09-26T02:47:54.238Z,9.36
2022-09-26T02:48:54.210Z,9.36
2022-09-26T02:49:54.198Z,9.39
2022-09-26T02:50:54.173Z,9.34
2022-09-26T02:51:54.157Z,9.30
2022-09-26T02:52:54.140Z,9.37
2022-09-26T02:53:54.124Z,9.34
2022-09-26T02:54:54.103Z,9.30
2022-09-26T02:55:54.087Z,9.31
2022-09-26T02:56:54.154Z,9.30
2022-09-26T02:57:54.051Z,9.29
2022-09-26T02:58:54.035Z,9.30
2022-09-26T02:59:54.014Z,9.22
2022-09-26T03:00:54.089Z,9.26
2022-09-26T03:01:53.979Z,9.27
2022-09-26T03:02:53.964Z,9.26
2022-09-26T03:03:53.947Z,9.27
2022-09-26T03:04:53.997Z,9.30
2022-09-26T03:05:53.912Z,9.21
2022-09-26T03:06:53.897Z,9.22
2022-09-26T03:07:53.872Z,9.21
2022-09-26T03:08:53.859Z,9.21
2022-09-26T03:09:53.839Z,9.24
2022-09-26T03:10:53.819Z,9.22
2022-09-26T03:11:53.802Z,9.18
2022-09-26T03:12:53.871Z,9.26
2022-09-26T03:13:53.767Z,9.27
2022-09-26T03:14:58.434Z,9.21
2022-09-26T03:15:53.732Z,9.29
2022-09-26T03:16:53.771Z,9.22
2022-09-26T03:17:53.699Z,9.21
2022-09-26T03:18:53.679Z,9.18
2022-09-26T03:19:53.662Z,9.18
2022-09-26T03:20:53.648Z,9.21
2022-09-26T03:21:53.623Z,9.16
2022-09-26T03:22:53.608Z,9.19
2022-09-26T03:23:53.587Z,9.13
2022-09-26T03:24:53.575Z,9.16
2022-09-26T03:25:53.552Z,9.19
2022-09-26T03:26:53.545Z,9.15
2022-09-26T03:27:53.518Z,9.16
2022-09-26T03:28:53.507Z,9.18
2022-09-26T03:29:53.481Z,9.21
2022-09-26T03:30:53.467Z,9.13
2022-09-26T03:31:53.633Z,9.18
2022-09-26T03:32:53.430Z,9.24
2022-09-26T03:33:53.414Z,9.26
2022-09-26T03:34:53.397Z,9.16
2022-09-26T03:35:53.377Z,9.13
2022-09-26T03:36:53.358Z,9.15
2022-09-26T03:37:53.339Z,9.12
2022-09-26T03:38:53.324Z,9.13
2022-09-26T03:39:53.308Z,9.12
2022-09-26T03:40:53.413Z,9.12
2022-09-26T03:41:53.267Z,9.03
2022-09-26T03:42:53.250Z,9.11
2022-09-26T03:43:53.233Z,9.11
2022-09-26T03:44:53.225Z,9.11
2022-09-26T03:45:53.241Z,9.08
2022-09-26T03:46:53.180Z,9.09
2022-09-26T03:47:53.161Z,9.02
2022-09-26T03:48:53.144Z,9.03
2022-09-26T03:49:53.125Z,9.00
2022-09-26T03:50:53.109Z,9.03
2022-09-26T03:51:53.091Z,9.02
2022-09-26T03:52:53.073Z,9.05
2022-09-26T03:53:53.056Z,9.00
2022-09-26T03:54:53.040Z,8.95
2022-09-26T03:56:00.268Z,8.99
2022-09-26T03:57:57.478Z,8.99
2022-09-26T03:58:56.942Z,8.87
2022-09-26T04:01:00.979Z,8.90
2022-09-26T04:02:00.934Z,8.87
2022-09-26T04:04:04.850Z,8.90
2022-09-26T04:05:04.813Z,8.87
2022-09-26T04:06:57.697Z,8.86
2022-09-26T04:07:57.677Z,8.79
2022-09-26T04:10:01.657Z,8.86
2022-09-26T04:11:01.599Z,8.86
2022-09-26T04:13:05.546Z,8.86
2022-09-26T04:14:05.541Z,8.86
2022-09-26T04:15:05.504Z,8.79
2022-09-26T04:16:05.644Z,8.75
2022-09-26T04:17:05.473Z,8.71
2022-09-26T04:18:05.455Z,8.72
2022-09-26T04:19:05.436Z,8.74
2022-09-26T04:20:05.422Z,8.86
2022-09-26T04:21:09.746Z,8.78
2022-09-26T04:22:05.380Z,8.79
2022-09-26T04:23:05.364Z,8.71
2022-09-26T04:24:05.350Z,8.72
2022-09-26T04:25:05.327Z,8.66
2022-09-26T04:26:05.314Z,8.75
2022-09-26T04:27:05.290Z,8.71
2022-09-26T04:28:05.271Z,8.71
2022-09-26T04:29:05.348Z,8.68
2022-09-26T04:30:05.237Z,8.69
2022-09-26T04:31:05.262Z,8.64
2022-09-26T04:32:05.308Z,8.66
2022-09-26T04:33:05.188Z,8.53
2022-09-26T04:34:05.175Z,8.60
2022-09-26T04:35:05.146Z,8.61
2022-09-26T04:36:05.131Z,8.68
2022-09-26T04:37:05.116Z,8.68
2022-09-26T04:38:05.098Z,8.69
2022-09-26T04:39:05.077Z,8.54
2022-09-26T04:40:05.058Z,8.61
2022-09-26T04:41:05.117Z,8.60
2022-09-26T04:42:05.021Z,8.59
2022-09-26T04:43:05.005Z,8.54
2022-09-26T04:44:04.990Z,8.56
2022-09-26T04:45:04.975Z,8.63
2022-09-26T04:46:04.996Z,8.59
2022-09-26T04:47:04.935Z,8.60
2022-09-26T04:48:04.918Z,8.60
2022-09-26T04:49:04.896Z,8.52
2022-09-26T04:50:04.880Z,8.59
2022-09-26T04:51:04.864Z,8.54
2022-09-26T04:52:04.844Z,8.63
2022-09-26T04:53:04.827Z,8.66
2022-09-26T04:54:04.813Z,8.74
2022-09-26T04:55:04.790Z,8.66
2022-09-26T04:56:04.770Z,8.66
2022-09-26T04:57:04.758Z,8.69
2022-09-26T04:58:04.737Z,8.69
2022-09-26T04:59:04.720Z,8.71
2022-09-26T05:00:04.700Z,8.69
2022-09-26T05:01:04.831Z,8.64
2022-09-26T05:02:04.756Z,8.63
2022-09-26T05:03:04.643Z,8.66
2022-09-26T05:04:04.632Z,8.63
2022-09-26T05:05:04.620Z,8.66
2022-09-26T05:06:04.595Z,8.66
2022-09-26T05:07:04.574Z,8.64
2022-09-26T05:08:04.554Z,8.68
2022-09-26T05:09:04.539Z,8.68
2022-09-26T05:10:04.532Z,8.69
2022-09-26T05:11:04.502Z,8.68
2022-09-26T05:12:04.486Z,8.71
2022-09-26T05:13:04.468Z,8.69
2022-09-26T05:14:04.447Z,8.68
2022-09-26T05:15:04.430Z,8.66
2022-09-26T05:16:04.431Z,8.77
2022-09-26T05:17:04.395Z,8.69
2022-09-26T05:18:04.377Z,8.75
2022-09-26T05:19:04.359Z,8.75
2022-09-26T05:20:04.435Z,8.77
2022-09-26T05:21:04.323Z,8.78
2022-09-26T05:22:04.306Z,8.78
2022-09-26T05:23:04.286Z,8.71
2022-09-26T05:24:04.265Z,8.78
2022-09-26T05:25:04.253Z,8.72
2022-09-26T05:26:04.231Z,8.78
2022-09-26T05:27:04.217Z,8.68
2022-09-26T05:28:04.196Z,8.79
2022-09-26T05:29:08.446Z,8.81
2022-09-26T05:30:04.158Z,8.89
2022-09-26T05:31:04.190Z,8.86
2022-09-26T05:32:04.332Z,8.86
2022-09-26T05:33:04.107Z,8.86
2022-09-26T05:34:04.094Z,8.99
2022-09-26T05:35:04.069Z,9.05
2022-09-26T05:36:04.058Z,9.03
2022-09-26T05:37:04.041Z,8.95
2022-09-26T05:38:04.022Z,9.18
2022-09-26T05:39:03.998Z,9.21
2022-09-26T05:40:03.989Z,9.18
2022-09-26T05:41:04.023Z,9.22
2022-09-26T05:42:03.946Z,9.30
2022-09-26T05:43:03.931Z,9.37
2022-09-26T05:44:03.909Z,9.34
2022-09-26T05:45:03.892Z,9.45
2022-09-26T05:46:03.875Z,9.45
2022-09-26T05:47:03.990Z,9.48
2022-09-26T05:48:03.837Z,9.42
2022-09-26T05:49:03.820Z,9.51
2022-09-26T05:50:03.801Z,9.44
2022-09-26T05:51:03.790Z,9.52
2022-09-26T05:52:03.769Z,9.47
2022-09-26T05:53:03.752Z,9.51
2022-09-26T05:54:03.731Z,9.55
2022-09-26T05:55:03.718Z,9.54
2022-09-26T05:56:03.700Z,9.62
2022-09-26T05:57:03.683Z,9.56
2022-09-26T05:58:03.659Z,9.59
2022-09-26T05:59:03.648Z,9.54
2022-09-26T06:00:03.627Z,9.55
2022-09-26T06:01:03.670Z,9.63
2022-09-26T06:02:03.615Z,9.56
2022-09-26T06:03:03.580Z,9.64
2022-09-26T06:04:03.553Z,9.72
2022-09-26T06:05:03.539Z,9.62
2022-09-26T06:06:03.517Z,9.70
2022-09-26T06:07:03.503Z,9.70
2022-09-26T06:08:03.486Z,9.67
2022-09-26T06:09:03.478Z,9.69
2022-09-26T06:10:03.446Z,9.74
2022-09-26T06:11:03.431Z,9.77
2022-09-26T06:12:03.413Z,9.76
2022-09-26T06:13:03.394Z,9.73
2022-09-26T06:14:03.397Z,9.67
2022-09-26T06:15:03.359Z,9.70
2022-09-26T06:16:03.389Z,9.69
2022-09-26T06:17:03.325Z,9.72
2022-09-26T06:18:03.305Z,9.72
2022-09-26T06:19:03.288Z,9.67
2022-09-26T06:20:03.269Z,9.74
2022-09-26T06:21:03.256Z,9.66
2022-09-26T06:22:03.235Z,9.63
2022-09-26T06:23:03.219Z,9.73
2022-09-26T06:24:03.203Z,9.73
2022-09-26T06:25:03.183Z,9.72
2022-09-26T06:26:03.171Z,9.73
2022-09-26T06:27:03.149Z,9.74
2022-09-26T06:28:03.134Z,9.74
2022-09-26T06:29:03.114Z,9.67
2022-09-26T06:30:03.093Z,9.66
2022-09-26T06:31:03.076Z,9.77
2022-09-26T06:32:03.135Z,9.77
2022-09-26T06:33:03.042Z,9.77
2022-09-26T06:34:03.027Z,9.74
2022-09-26T06:35:03.011Z,9.82
2022-09-26T06:36:02.992Z,9.77
2022-09-26T06:37:02.975Z,9.81
2022-09-26T06:38:02.956Z,9.80
2022-09-26T06:39:02.935Z,9.77
2022-09-26T06:40:02.922Z,9.82
2022-09-26T06:41:02.990Z,9.76
2022-09-26T06:42:02.884Z,9.80
2022-09-26T06:43:02.864Z,9.82
2022-09-26T06:44:02.856Z,9.80
2022-09-26T06:45:02.830Z,9.74
2022-09-26T06:46:02.813Z,9.76
2022-09-26T06:47:02.849Z,9.73
2022-09-26T06:48:02.778Z,9.77
2022-09-26T06:49:02.759Z,9.77
2022-09-26T06:50:02.743Z,9.77
2022-09-26T06:51:02.727Z,9.74
2022-09-26T06:52:02.709Z,9.74
2022-09-26T06:53:10.743Z,9.81
2022-09-26T06:54:02.680Z,9.80
2022-09-26T06:55:02.654Z,9.81
2022-09-26T06:56:02.646Z,9.81
2022-09-26T06:57:02.621Z,9.84
2022-09-26T06:58:02.604Z,9.91
2022-09-26T06:59:02.588Z,9.97
2022-09-26T07:00:02.581Z,10.05
2022-09-26T07:01:02.795Z,10.02
2022-09-26T07:02:02.610Z,10.13
2022-09-26T07:03:02.523Z,10.23
2022-09-26T07:04:02.501Z,10.23
2022-09-26T07:05:02.489Z,10.33
2022-09-26T07:06:02.466Z,10.34
2022-09-26T07:07:02.444Z,10.46
2022-09-26T07:08:02.433Z,10.57
2022-09-26T07:09:04.834Z,10.71
2022-09-26T07:10:02.393Z,10.68
2022-09-26T07:11:21.254Z,10.80
2022-09-26T07:12:16.933Z,10.89
2022-09-26T07:13:02.341Z,10.83
2022-09-26T07:14:02.474Z,10.89
2022-09-26T07:15:02.307Z,10.87
2022-09-26T07:16:02.323Z,10.90
2022-09-26T07:17:02.275Z,10.90
2022-09-26T07:18:02.261Z,10.87
2022-09-26T07:19:02.237Z,10.79
2022-09-26T07:20:02.222Z,10.84
2022-09-26T07:21:02.216Z,10.76
2022-09-26T07:22:02.194Z,10.72
2022-09-26T07:23:02.167Z,10.80
2022-09-26T07:24:02.154Z,10.87
2022-09-26T07:25:02.137Z,10.92
2022-09-26T07:26:02.120Z,10.89
2022-09-26T07:27:02.103Z,10.92
2022-09-26T07:28:02.165Z,11.00
2022-09-26T07:29:02.071Z,11.05
2022-09-26T07:30:02.069Z,11.01
2022-09-26T07:31:02.141Z,11.12
2022-09-26T07:32:02.106Z,11.08
2022-09-26T07:33:02.000Z,11.26
2022-09-26T07:34:01.984Z,11.22
2022-09-26T07:35:01.971Z,11.31
2022-09-26T07:36:05.242Z,11.34
2022-09-26T07:37:01.933Z,11.41
2022-09-26T07:38:01.943Z,11.45
2022-09-26T07:39:01.902Z,11.49
2022-09-26T07:40:02.238Z,11.63
2022-09-26T07:41:01.906Z,11.68
2022-09-26T07:42:01.851Z,11.73
2022-09-26T07:43:19.170Z,11.85
2022-09-26T07:44:58.920Z,11.91
2022-09-26T07:45:31.851Z,11.99
2022-09-26T07:46:01.786Z,12.07
2022-09-26T07:47:01.824Z,12.18
2022-09-26T07:48:01.754Z,12.25
2022-09-26T07:49:01.737Z,12.18
2022-09-26T07:50:01.718Z,12.18
2022-09-26T07:51:04.598Z,12.15
2022-09-26T07:52:01.685Z,12.21
2022-09-26T07:53:01.670Z,12.20
2022-09-26T07:54:01.653Z,12.17
2022-09-26T07:55:01.649Z,12.21
2022-09-26T07:56:01.621Z,12.23
2022-09-26T07:57:01.619Z,12.32
2022-09-26T07:58:01.590Z,12.43
2022-09-26T07:59:01.577Z,12.47
2022-09-26T08:00:01.604Z,12.50
2022-09-26T08:01:01.541Z,12.51
2022-09-26T08:02:01.592Z,12.63
2022-09-26T08:03:01.688Z,12.62
2022-09-26T08:04:01.496Z,12.72
2022-09-26T08:05:01.486Z,12.84
2022-09-26T08:06:01.463Z,12.91
2022-09-26T08:07:01.445Z,13.05
2022-09-26T08:08:01.429Z,13.20
2022-09-26T08:09:01.414Z,13.17
2022-09-26T08:10:01.398Z,13.39
2022-09-26T08:11:03.977Z,13.49
2022-09-26T08:12:01.369Z,13.61
2022-09-26T08:13:01.353Z,13.68
2022-09-26T08:14:01.339Z,13.68
2022-09-26T08:15:01.324Z,13.80
2022-09-26T08:16:01.405Z,13.78
2022-09-26T08:17:01.292Z,13.91
2022-09-26T08:18:01.284Z,14.04
2022-09-26T08:19:01.263Z,14.12
2022-09-26T08:20:01.255Z,14.16
2022-09-26T08:21:01.231Z,14.22
2022-09-26T08:22:01.227Z,14.31
2022-09-26T08:23:01.203Z,14.36
2022-09-26T08:24:01.190Z,14.48
2022-09-26T08:25:01.176Z,14.51
2022-09-26T08:26:01.162Z,14.41
2022-09-26T08:27:01.147Z,14.55
2022-09-26T08:28:01.136Z,14.67
2022-09-26T08:29:01.116Z,14.73
2022-09-26T08:30:01.103Z,14.86
2022-09-26T08:31:01.125Z,14.82
2022-09-26T08:32:01.100Z,14.99
2022-09-26T08:33:01.059Z,15.02
2022-09-26T08:34:01.048Z,15.00
2022-09-26T08:35:01.030Z,15.15
2022-09-26T08:36:01.021Z,15.22
2022-09-26T08:37:01.006Z,15.33
2022-09-26T08:38:00.996Z,15.45
2022-09-26T08:39:00.987Z,15.52
2022-09-26T08:40:01.078Z,15.45
2022-09-26T08:41:01.010Z,15.45
2022-09-26T08:42:00.938Z,15.44
2022-09-26T08:43:00.922Z,15.43
2022-09-26T08:44:00.910Z,15.55
2022-09-26T08:45:00.895Z,15.69
2022-09-26T08:46:00.962Z,15.69
2022-09-26T08:47:00.912Z,15.80
2022-09-26T08:48:00.861Z,15.90
2022-09-26T08:49:00.841Z,15.83
2022-09-26T08:50:00.834Z,15.98
2022-09-26T08:51:00.813Z,16.12
2022-09-26T08:52:00.803Z,16.25
2022-09-26T08:53:00.790Z,16.47
2022-09-26T08:54:00.777Z,16.43
2022-09-26T08:55:00.762Z,16.68
2022-09-26T08:56:00.757Z,16.76
2022-09-26T08:57:00.735Z,16.82
2022-09-26T08:58:00.741Z,17.01
2022-09-26T08:59:00.711Z,17.10
2022-09-26T09:00:00.699Z,17.22
2022-09-26T09:01:00.684Z,17.38
2022-09-26T09:02:00.838Z,17.39
2022-09-26T09:03:00.704Z,17.42
2022-09-26T09:04:00.658Z,17.27
2022-09-26T09:05:00.635Z,17.16
2022-09-26T09:06:00.622Z,17.09
2022-09-26T09:07:00.608Z,17.14
2022-09-26T09:08:00.601Z,17.17
2022-09-26T09:09:00.583Z,17.31
2022-09-26T09:10:00.574Z,17.41
2022-09-26T09:11:00.564Z,17.41
2022-09-26T09:12:00.546Z,17.44
2022-09-26T09:13:00.530Z,17.42
2022-09-26T09:14:00.525Z,17.30
2022-09-26T09:15:23.413Z,17.16
2022-09-26T09:16:00.539Z,16.94
2022-09-26T09:17:00.482Z,16.91
2022-09-26T09:18:00.471Z,16.65
2022-09-26T09:19:00.457Z,16.51
2022-09-26T09:20:00.441Z,16.28
2022-09-26T09:21:00.428Z,16.16
2022-09-26T09:22:00.417Z,16.02
2022-09-26T09:23:00.399Z,16.02
2022-09-26T09:24:00.393Z,15.91
2022-09-26T09:25:00.372Z,15.87
2022-09-26T09:27:52.209Z,16.00
2022-09-26T09:28:05.421Z,16.12
2022-09-26T09:29:00.318Z,16.18
2022-09-26T09:30:00.311Z,16.05
2022-09-26T09:31:00.377Z,15.87
2022-09-26T09:32:00.282Z,15.78
2022-09-26T09:33:00.264Z,15.57
2022-09-26T09:34:00.256Z,15.50
2022-09-26T09:35:00.237Z,15.44
2022-09-26T09:36:00.228Z,15.48
2022-09-26T09:37:00.222Z,15.45
2022-09-26T09:38:00.197Z,15.44
2022-09-26T09:39:00.179Z,15.54
2022-09-26T09:40:00.167Z,15.57
2022-09-26T09:41:00.288Z,15.55
2022-09-26T09:42:00.141Z,15.52
2022-09-26T09:43:00.128Z,15.48
2022-09-26T09:44:00.143Z,15.59
2022-09-26T09:45:00.098Z,15.62
2022-09-26T09:46:00.091Z,15.66
2022-09-26T09:47:00.130Z,15.63
2022-09-26T09:48:00.054Z,15.78
2022-09-26T09:49:00.043Z,15.88
2022-09-26T09:50:00.031Z,15.88
2022-09-26T09:51:00.012Z,15.92
2022-09-26T09:52:00.026Z,15.87
2022-09-26T09:52:59.986Z,15.90
2022-09-26T09:53:59.974Z,15.91
2022-09-26T09:54:59.957Z,15.99
2022-09-26T09:55:59.948Z,15.96
2022-09-26T09:56:59.927Z,15.85
2022-09-26T09:57:59.918Z,15.85
2022-09-26T09:58:59.900Z,15.76
2022-09-26T10:00:01.976Z,15.78
2022-09-26T10:00:59.874Z,15.67
2022-09-26T10:02:07.570Z,15.57
2022-09-26T10:04:05.376Z,15.57
2022-09-26T10:05:05.284Z,15.47
2022-09-26T10:07:09.791Z,15.60
2022-09-26T10:08:09.724Z,15.52
2022-09-26T10:10:15.177Z,15.81
2022-09-26T10:11:15.117Z,16.00
2022-09-26T10:13:08.502Z,16.21
2022-09-26T10:14:08.476Z,16.22
2022-09-26T10:16:12.982Z,16.32
2022-09-26T10:17:12.889Z,16.47
2022-09-26T10:19:17.344Z,16.72
2022-09-26T10:20:17.322Z,16.76
2022-09-26T10:22:21.798Z,16.64
2022-09-26T10:23:21.762Z,16.57
2022-09-26T10:25:27.203Z,16.25
2022-09-26T10:26:31.270Z,15.99
2022-09-26T10:28:31.645Z,15.57
2022-09-26T10:29:31.615Z,15.39
2022-09-26T10:31:41.395Z,15.07
2022-09-26T10:32:36.048Z,14.94
2022-09-26T10:34:40.531Z,14.71
2022-09-26T10:35:40.513Z,14.68
2022-09-26T10:36:40.498Z,14.62
2022-09-26T10:37:40.488Z,14.59
2022-09-26T10:38:40.468Z,14.44
2022-09-26T10:39:40.455Z,14.51
2022-09-26T10:40:40.475Z,14.37
2022-09-26T10:41:40.424Z,14.34
2022-09-26T10:42:40.409Z,14.36
2022-09-26T10:43:40.400Z,14.23
2022-09-26T10:44:40.378Z,14.23
2022-09-26T10:45:40.372Z,14.23
2022-09-26T10:46:40.443Z,14.26
2022-09-26T10:47:40.341Z,14.26
2022-09-26T10:48:40.318Z,14.12
2022-09-26T10:49:40.305Z,14.22
2022-09-26T10:50:40.294Z,14.18
2022-09-26T10:51:40.275Z,14.15
2022-09-26T10:52:40.274Z,14.18
2022-09-26T10:53:40.260Z,14.18
2022-09-26T10:54:40.229Z,14.12
2022-09-26T10:55:40.223Z,14.05
2022-09-26T10:56:40.199Z,14.12
2022-09-26T10:57:40.190Z,14.38
2022-09-26T10:58:40.248Z,14.71
2022-09-26T10:59:40.157Z,15.14
2022-09-26T11:00:40.144Z,15.72
2022-09-26T11:01:40.182Z,16.17
2022-09-26T11:02:40.117Z,16.76
2022-09-26T11:03:40.235Z,17.17
2022-09-26T11:04:40.087Z,17.42
2022-09-26T11:05:40.075Z,17.65
2022-09-26T11:06:40.064Z,17.86
2022-09-26T11:07:40.044Z,17.93
2022-09-26T11:08:40.038Z,17.94
2022-09-26T11:09:40.074Z,17.82
2022-09-26T11:10:40.022Z,17.66
2022-09-26T11:11:39.995Z,17.54
2022-09-26T11:12:39.991Z,17.34
2022-09-26T11:13:39.961Z,17.19
2022-09-26T11:14:39.945Z,17.13
2022-09-26T11:15:40.021Z,17.22
2022-09-26T11:16:40.021Z,17.14
2022-09-26T11:17:39.911Z,17.28
2022-09-26T11:18:39.893Z,17.31
2022-09-26T11:19:39.882Z,17.20
2022-09-26T11:20:39.866Z,17.16
2022-09-26T11:21:39.851Z,17.16
2022-09-26T11:22:39.837Z,17.35
2022-09-26T11:23:39.824Z,17.65
2022-09-26T11:24:39.813Z,18.06
2022-09-26T11:25:39.802Z,18.64
2022-09-26T11:26:39.786Z,18.68
2022-09-26T11:27:39.772Z,18.83
2022-09-26T11:28:39.759Z,18.88
2022-09-26T11:29:39.748Z,18.89
2022-09-26T11:30:39.738Z,19.12
2022-09-26T11:31:39.760Z,19.34
2022-09-26T11:32:39.723Z,19.45
2022-09-26T11:33:39.702Z,19.39
2022-09-26T11:34:39.684Z,19.26
2022-09-26T11:35:39.681Z,18.94
2022-09-26T11:36:39.672Z,18.83
2022-09-26T11:37:39.666Z,18.58
2022-09-26T11:38:39.636Z,18.43
2022-09-26T11:39:39.630Z,18.33
2022-09-26T11:40:39.648Z,18.18
2022-09-26T11:41:39.609Z,18.21
2022-09-26T11:42:39.584Z,18.30
2022-09-26T11:43:39.573Z,18.43
2022-09-26T11:44:39.564Z,18.67
2022-09-26T11:45:43.933Z,18.71
2022-09-26T11:46:39.639Z,18.86
2022-09-26T11:47:39.525Z,18.98
2022-09-26T11:48:39.508Z,19.17
2022-09-26T11:49:39.503Z,19.37
2022-09-26T11:50:39.485Z,19.45
2022-09-26T11:51:39.475Z,19.70
2022-09-26T11:52:39.461Z,19.94
2022-09-26T11:53:39.449Z,20.14
2022-09-26T11:54:39.445Z,20.17
2022-09-26T11:55:39.432Z,20.29
2022-09-26T11:56:39.429Z,20.42
2022-09-26T11:57:39.423Z,20.52
2022-09-26T11:58:39.389Z,20.59
2022-09-26T11:59:39.412Z,20.68
2022-09-26T12:00:39.370Z,20.68
2022-09-26T12:01:39.358Z,20.88
2022-09-26T12:02:39.505Z,20.89
2022-09-26T12:03:39.497Z,20.82
2022-09-26T12:04:39.336Z,20.60
2022-09-26T12:05:39.319Z,20.34
2022-09-26T12:06:39.323Z,20.08
2022-09-26T12:07:39.291Z,19.87
2022-09-26T12:08:39.277Z,19.66
2022-09-26T12:09:39.271Z,19.57
2022-09-26T12:10:39.254Z,19.34
2022-09-26T12:11:39.245Z,19.22
2022-09-26T12:12:40.674Z,19.04
2022-09-26T12:13:39.263Z,18.70
2022-09-26T12:14:39.275Z,18.68
2022-09-26T12:15:39.255Z,18.46
2022-09-26T12:16:39.183Z,18.30
2022-09-26T12:17:39.180Z,18.05
2022-09-26T12:18:39.159Z,17.94
2022-09-26T12:19:39.149Z,17.87
2022-09-26T12:20:39.135Z,17.90
2022-09-26T12:21:39.126Z,18.03
2022-09-26T12:22:39.111Z,18.42
2022-09-26T12:23:39.100Z,18.61
2022-09-26T12:24:39.085Z,18.76
2022-09-26T12:25:39.080Z,18.94
2022-09-26T12:26:39.065Z,18.94
2022-09-26T12:27:39.050Z,19.07
2022-09-26T12:28:39.035Z,18.97
2022-09-26T12:29:39.138Z,18.89
2022-09-26T12:30:41.840Z,18.85
2022-09-26T12:31:39.123Z,18.79
2022-09-26T12:32:38.991Z,18.57
2022-09-26T12:33:38.976Z,18.58
2022-09-26T12:34:38.975Z,18.53
2022-09-26T12:35:38.951Z,18.51
2022-09-26T12:36:38.937Z,18.61
2022-09-26T12:37:38.925Z,18.71
2022-09-26T12:38:38.913Z,19.07
2022-09-26T12:39:38.910Z,19.47
2022-09-26T12:40:38.911Z,20.10
2022-09-26T12:41:38.882Z,20.63
2022-09-26T12:42:38.864Z,20.90
2022-09-26T12:43:38.853Z,21.20
2022-09-26T12:44:38.844Z,21.54
2022-09-26T12:45:38.847Z,21.74
2022-09-26T12:46:38.965Z,22.22
2022-09-26T12:47:38.805Z,22.61
2022-09-26T12:48:38.802Z,22.93
2022-09-26T12:49:38.787Z,23.08
2022-09-26T12:50:38.778Z,23.29
2022-09-26T12:51:38.766Z,23.52
2022-09-26T12:52:38.758Z,23.58
2022-09-26T12:53:38.752Z,23.69
2022-09-26T12:54:38.740Z,23.67
2022-09-26T12:55:38.726Z,23.58
2022-09-26T12:56:38.725Z,23.32
2022-09-26T12:57:38.711Z,22.86
2022-09-26T12:58:38.700Z,22.33
2022-09-26T12:59:39.049Z,21.88
2022-09-26T13:00:38.682Z,21.50
2022-09-26T13:01:38.740Z,21.14
2022-09-26T13:02:38.733Z,20.89
2022-09-26T13:03:38.647Z,20.49
2022-09-26T13:04:38.750Z,20.18
2022-09-26T13:05:38.628Z,19.87
2022-09-26T13:06:38.618Z,19.48
2022-09-26T13:07:38.608Z,19.35
2022-09-26T13:08:38.600Z,18.98
2022-09-26T13:09:38.584Z,18.78
2022-09-26T13:10:38.582Z,18.63
2022-09-26T13:11:38.561Z,18.42
2022-09-26T13:12:38.555Z,18.21
2022-09-26T13:13:38.545Z,18.03
2022-09-26T13:14:38.547Z,17.94
2022-09-26T13:15:38.542Z,17.86
2022-09-26T13:16:38.502Z,17.68
2022-09-26T13:17:38.493Z,17.57
2022-09-26T13:18:38.478Z,17.44
2022-09-26T13:19:38.465Z,17.23
2022-09-26T13:20:38.455Z,17.14
2022-09-26T13:21:38.440Z,17.05
2022-09-26T13:22:38.427Z,16.95
2022-09-26T13:23:38.413Z,16.83
2022-09-26T13:24:38.403Z,16.76
2022-09-26T13:25:38.389Z,16.64